Songa Genesis — V7JH9 — position and weather

sailwx.info

Track history (hours):
 
Tides and Currents Weather Stations Pressure Air Temp Water Temp Dewpoint Dewpoint Depression Visibility Wind Speed Wind Dir Waves Ship Positions

Songa Genesis

Last reported at 2017-Dec-18 17:57 UTC. Time now 2017-Dec-18 22:32 UTC.
Position N 55°04' E 013°59'.

Length 229 m; draft 12.5 m.

Type: Cargo ship. MMSI: 538007355.

Date/timePositionNaut miles runAvg speedWind from/ knotsBaromVisibWave heightAir tempDewpointWater temp
2017-Dec-18 17:57N 55°04' E 013°59'612.1
2017-Dec-18 17:27N 55°07' E 014°08'511.9
2017-Dec-18 17:00N 55°11' E 014°14'612.2
2017-Dec-18 16:30N 55°16' E 014°21'612.4
2017-Dec-18 16:00N 55°20' E 014°27'612.4
2017-Dec-18 15:30N 55°25' E 014°34'612.3
2017-Dec-18 15:00N 55°28' E 014°43'612.4
2017-Dec-18 14:30N 55°31' E 014°53'712.2
2017-Dec-18 13:58N 55°34' E 015°03'612.1
2017-Dec-18 13:30N 55°37' E 015°12'612.1
2017-Dec-18 13:00N 55°39' E 015°22'612.2
2017-Dec-18 12:30N 55°40' E 015°33'612.2
2017-Dec-18 12:00N 55°42' E 015°43'612.4
2017-Dec-18 11:30N 55°43' E 015°54'612.6
2017-Dec-18 11:00N 55°45' E 016°05'612.7
2017-Dec-18 10:30N 55°46' E 016°16'612.5
2017-Dec-18 10:00N 55°48' E 016°27'612.3
2017-Dec-18 09:30N 55°49' E 016°37'33411.9
2017-Dec-17 05:24N 59°44' E 024°03'512.7
2017-Dec-17 04:59N 59°45' E 024°13'612.9
2017-Dec-17 04:30N 59°47' E 024°25'612.8
2017-Dec-17 04:00N 59°49' E 024°37'613.0
2017-Dec-17 03:30N 59°50' E 024°50'612.9
2017-Dec-17 03:00N 59°51' E 025°02'612.7
2017-Dec-17 02:30N 59°52' E 025°15'712.8
2017-Dec-17 02:00N 59°53' E 025°28'612.4
2017-Dec-17 01:30N 59°54' E 025°40'1712.6
2017-Dec-17 00:11N 59°58' E 026°12'212.8
2017-Dec-17 00:00N 59°59' E 026°16'612.5
2017-Dec-16 23:30N 60°01' E 026°28'612.3
2017-Dec-16 23:00N 60°01' E 026°41'612.5
2017-Dec-16 22:31N 60°00' E 026°53'612.2
2017-Dec-16 22:00N 59°60' E 027°05'612.6
2017-Dec-16 21:30N 60°03' E 027°16'612.4
2017-Dec-16 21:01N 60°06' E 027°26'612.6
2017-Dec-16 20:30N 60°10' E 027°37'611.8
2017-Dec-16 20:00N 60°12' E 027°48'612.6
2017-Dec-16 19:30N 60°10' E 028°00'612.5
2017-Dec-16 19:01N 60°09' E 028°13'612.0
2017-Dec-16 18:31N 60°05' E 028°23'612.2
2017-Dec-16 18:00N 60°03' E 028°34'611.2
2017-Dec-16 17:30N 59°57' E 028°35'4 8.6
2017-Dec-16 17:01N 59°54' E 028°31'611.2
2017-Dec-16 16:30N 59°49' E 028°25'5 9.5
2017-Dec-16 16:00N 59°44' E 028°25'3 5.4
2017-Dec-16 15:30N 59°41' E 028°25'0 0.1
2017-Dec-16 14:56N 59°41' E 028°25'0 0.0
2017-Dec-16 14:24N 59°41' E 028°25'0 0.0
2017-Dec-16 13:54N 59°41' E 028°25'0 0.0
2017-Dec-16 13:24N 59°41' E 028°25'0 0.0
2017-Dec-16 12:57N 59°41' E 028°25'0 0.0
2017-Dec-16 12:27N 59°41' E 028°25'0 0.0
2017-Dec-16 11:57N 59°41' E 028°25'0 0.0
2017-Dec-16 11:27N 59°41' E 028°25'0 0.0
2017-Dec-16 10:57N 59°41' E 028°25'0 0.0
2017-Dec-16 10:30N 59°41' E 028°25'0 0.0
2017-Dec-16 10:00N 59°41' E 028°25'0 0.0
2017-Dec-16 09:30N 59°41' E 028°25'0 0.0
2017-Dec-16 09:00N 59°41' E 028°25'0 0.0
2017-Dec-16 08:30N 59°41' E 028°25'0 0.0
2017-Dec-16 08:00N 59°41' E 028°25'0 0.0
2017-Dec-16 07:30N 59°41' E 028°25'0 0.0
2017-Dec-16 07:00N 59°41' E 028°25'0 0.0
2017-Dec-16 06:30N 59°41' E 028°25'0 0.0
2017-Dec-16 06:00N 59°41' E 028°25'0 0.0
2017-Dec-16 05:27N 59°41' E 028°25'0 0.0
2017-Dec-16 04:51N 59°41' E 028°25'0 0.0
2017-Dec-16 04:30N 59°41' E 028°25'0 0.0
2017-Dec-16 04:00N 59°41' E 028°25'0 0.0
2017-Dec-16 03:21N 59°41' E 028°25'0 0.0
2017-Dec-16 02:51N 59°41' E 028°25'0 0.0
2017-Dec-16 02:21N 59°41' E 028°25'0 0.0
2017-Dec-16 01:54N 59°41' E 028°25'0 0.0
2017-Dec-16 01:24N 59°41' E 028°25'0 0.0
2017-Dec-16 00:57N 59°41' E 028°25'0 0.0
2017-Dec-16 00:24N 59°41' E 028°25'0 0.0
2017-Dec-16 00:00N 59°41' E 028°25'0 0.0
2017-Dec-15 23:27N 59°41' E 028°25'0 0.0
2017-Dec-15 23:00N 59°41' E 028°25'0 0.0
2017-Dec-15 22:27N 59°41' E 028°25'0 0.0
2017-Dec-15 21:57N 59°41' E 028°25'0 0.0
2017-Dec-15 21:27N 59°41' E 028°25'0 0.0
2017-Dec-15 20:57N 59°41' E 028°25'0 0.0
2017-Dec-15 20:28N 59°41' E 028°25'0 0.0
2017-Dec-15 20:00N 59°41' E 028°25'0 0.0
2017-Dec-15 19:30N 59°41' E 028°25'0 0.0
2017-Dec-15 19:00N 59°41' E 028°25'0 0.0
2017-Dec-15 18:30N 59°41' E 028°25'0 0.0
2017-Dec-15 18:00N 59°41' E 028°25'0 0.0
2017-Dec-15 17:30N 59°41' E 028°25'0 0.0
2017-Dec-15 17:00N 59°41' E 028°25'0 0.0
2017-Dec-15 16:30N 59°41' E 028°25'0 0.0
2017-Dec-15 16:00N 59°41' E 028°25'0 0.0
2017-Dec-15 15:18N 59°41' E 028°25'0 0.0
2017-Dec-15 15:00N 59°41' E 028°25'0 0.0
2017-Dec-15 14:30N 59°41' E 028°25'0 0.0
2017-Dec-15 14:00N 59°41' E 028°25'0 0.0
2017-Dec-15 13:18N 59°41' E 028°25'0 0.0
2017-Dec-15 12:51N 59°41' E 028°25'0 0.0
2017-Dec-15 12:21N 59°41' E 028°25'0 0.0
2017-Dec-15 11:54N 59°41' E 028°25'0 0.0
2017-Dec-15 11:24N 59°41' E 028°25'0 0.0
2017-Dec-15 10:54N 59°41' E 028°25'0 0.0
2017-Dec-15 10:24N 59°41' E 028°25'0 0.0
2017-Dec-15 09:54N 59°41' E 028°25'0 0.0
2017-Dec-15 09:24N 59°41' E 028°25'0 0.0
2017-Dec-15 08:55N 59°41' E 028°25'0 0.0
2017-Dec-15 08:25N 59°41' E 028°25'0 0.0
2017-Dec-15 07:55N 59°41' E 028°25'0 0.0
2017-Dec-15 07:25N 59°41' E 028°25'0 0.0
2017-Dec-15 06:55N 59°41' E 028°25'0 0.0
2017-Dec-15 06:28N 59°41' E 028°25'0 0.0
2017-Dec-15 05:58N 59°41' E 028°25'0 0.0
2017-Dec-15 05:28N 59°41' E 028°25'0 0.0
2017-Dec-15 04:58N 59°41' E 028°25'0 0.0
2017-Dec-15 04:28N 59°41' E 028°25'0 0.0
2017-Dec-15 03:58N 59°41' E 028°25'0 0.0
2017-Dec-15 02:16N 59°41' E 028°25'0 0.0
2017-Dec-15 00:58N 59°41' E 028°25'0 0.0
2017-Dec-15 00:28N 59°41' E 028°25'15 2.5
2017-Dec-14 18:29N 59°54' E 028°38'0 0.0
2017-Dec-14 17:50N 59°54' E 028°38'0 0.0
2017-Dec-14 17:20N 59°54' E 028°38'0 0.0
2017-Dec-14 16:50N 59°54' E 028°38'0 0.0
2017-Dec-14 16:23N 59°54' E 028°38'0 0.0
2017-Dec-14 15:53N 59°54' E 028°38'0 0.0
2017-Dec-14 14:53N 59°54' E 028°38'0 0.0
2017-Dec-14 14:23N 59°54' E 028°38'0 0.0
2017-Dec-14 14:00N 59°54' E 028°38'0 0.0
2017-Dec-14 13:26N 59°54' E 028°38'0 0.0
2017-Dec-14 12:56N 59°54' E 028°38'0 0.0
2017-Dec-14 12:15N 59°54' E 028°38'0 0.0
2017-Dec-14 11:56N 59°54' E 028°38'0 0.0
2017-Dec-14 11:29N 59°54' E 028°38'0 0.0
2017-Dec-14 10:57N 59°54' E 028°38'0 0.0
2017-Dec-14 10:29N 59°54' E 028°38'0 0.0
2017-Dec-14 09:59N 59°54' E 028°38'0 0.0
2017-Dec-14 09:30N 59°54' E 028°38'0 0.0
2017-Dec-14 08:59N 59°54' E 028°38'0 0.0
2017-Dec-14 08:29N 59°54' E 028°38'0 0.0
2017-Dec-14 07:59N 59°54' E 028°38'0 0.0
2017-Dec-14 07:29N 59°54' E 028°38'0 0.0
2017-Dec-14 07:00N 59°54' E 028°38'0 0.0
2017-Dec-14 06:29N 59°54' E 028°38'0 0.1
2017-Dec-14 05:59N 59°54' E 028°38'0 0.0
2017-Dec-14 05:29N 59°54' E 028°38'0 0.0
2017-Dec-14 04:59N 59°54' E 028°38'0 0.0
2017-Dec-14 04:20N 59°54' E 028°38'0 0.0
2017-Dec-14 03:55N 59°54' E 028°38'0 0.0
2017-Dec-14 03:22N 59°54' E 028°38'0 0.0
2017-Dec-14 03:00N 59°54' E 028°38'0 0.0
2017-Dec-14 02:23N 59°54' E 028°38'0 0.0
2017-Dec-14 01:59N 59°54' E 028°38'0 0.0
2017-Dec-14 01:28N 59°54' E 028°38'0 0.0
2017-Dec-14 00:59N 59°54' E 028°38'0 0.0
2017-Dec-14 00:23N 59°54' E 028°38'0 0.0
2017-Dec-13 23:56N 59°54' E 028°38'0 0.0
2017-Dec-13 23:26N 59°54' E 028°38'0 0.0
2017-Dec-13 22:56N 59°54' E 028°38'0 0.0
2017-Dec-13 22:28N 59°54' E 028°38'0 0.0
2017-Dec-13 22:00N 59°54' E 028°38'0 0.0
2017-Dec-13 21:29N 59°54' E 028°38'0 0.0
2017-Dec-13 20:59N 59°54' E 028°38'0 0.0
2017-Dec-13 20:29N 59°54' E 028°38'0 0.0
2017-Dec-13 19:59N 59°54' E 028°38'0 0.0
2017-Dec-13 19:29N 59°54' E 028°38'0 0.0
2017-Dec-13 18:59N 59°54' E 028°38'0 0.0
2017-Dec-13 18:26N 59°54' E 028°38'0 0.0
2017-Dec-13 17:59N 59°54' E 028°38'0 0.0
2017-Dec-13 17:29N 59°54' E 028°38'0 0.0
2017-Dec-13 16:59N 59°54' E 028°38'0 0.0
2017-Dec-13 16:29N 59°54' E 028°38'0 0.0
2017-Dec-13 15:59N 59°54' E 028°38'0 0.0
2017-Dec-13 15:29N 59°54' E 028°38'0 0.0
2017-Dec-13 14:59N 59°54' E 028°38'0 0.1
2017-Dec-13 14:29N 59°54' E 028°38'0 0.0
2017-Dec-13 13:55N 59°54' E 028°38'0 0.0
2017-Dec-13 13:30N 59°54' E 028°38'0 0.0
2017-Dec-13 12:58N 59°54' E 028°38'0 0.0
2017-Dec-13 12:29N 59°54' E 028°38'0 0.0
2017-Dec-13 11:59N 59°54' E 028°38'0 0.0
2017-Dec-13 11:29N 59°54' E 028°38'0 0.2
2017-Dec-13 10:59N 59°54' E 028°38'0 0.1
2017-Dec-13 10:29N 59°54' E 028°38'0 0.1
2017-Dec-13 09:59N 59°54' E 028°38'0 0.0
2017-Dec-13 09:29N 59°54' E 028°38'0 0.1
2017-Dec-13 08:59N 59°54' E 028°38'0 0.1
2017-Dec-13 08:29N 59°54' E 028°38'0 0.0
2017-Dec-13 07:58N 59°54' E 028°38'0 0.0
2017-Dec-13 07:28N 59°54' E 028°38'0 0.0
2017-Dec-13 07:00N 59°54' E 028°38'0 0.0
2017-Dec-13 06:20N 59°54' E 028°38'0 0.0
2017-Dec-13 05:58N 59°54' E 028°38'0 0.0
2017-Dec-13 05:30N 59°54' E 028°38'0 0.0
2017-Dec-13 05:00N 59°54' E 028°38'0 0.0
2017-Dec-13 04:30N 59°54' E 028°38'0 0.0
2017-Dec-13 04:01N 59°54' E 028°38'0 0.0
2017-Dec-13 03:27N 59°54' E 028°38'0 0.0
2017-Dec-13 03:00N 59°54' E 028°38'0 0.1
2017-Dec-13 02:29N 59°54' E 028°38'0 0.1
2017-Dec-13 02:00N 59°54' E 028°38'0 0.0
2017-Dec-13 01:30N 59°54' E 028°38'0 0.0
2017-Dec-13 00:56N 59°54' E 028°38'0 0.0
2017-Dec-13 00:29N 59°54' E 028°38'0 0.0
2017-Dec-12 23:59N 59°54' E 028°38'0 0.0
2017-Dec-12 23:29N 59°54' E 028°38'0 0.0
2017-Dec-12 22:55N 59°54' E 028°38'0 0.0
2017-Dec-12 22:04N 59°54' E 028°38'0 0.0
2017-Dec-12 21:56N 59°54' E 028°38'0 0.0
2017-Dec-12 21:25N 59°54' E 028°38'0 0.0
2017-Dec-12 20:59N 59°54' E 028°38'0 0.0
2017-Dec-12 20:29N 59°54' E 028°38'0 0.0
2017-Dec-12 19:59N 59°54' E 028°38'0 0.0
2017-Dec-12 19:29N 59°54' E 028°38'0 0.0
2017-Dec-12 19:00N 59°54' E 028°38'0 0.0
2017-Dec-12 18:29N 59°54' E 028°38'0 0.0
2017-Dec-12 17:50N 59°54' E 028°38'0 0.0
2017-Dec-12 17:20N 59°54' E 028°38'0 0.0
2017-Dec-12 16:50N 59°54' E 028°38'0 0.0
2017-Dec-12 16:29N 59°54' E 028°38'0 0.0
2017-Dec-12 15:53N 59°54' E 028°38'0 0.0
2017-Dec-12 15:29N 59°54' E 028°38'0 0.0
2017-Dec-12 14:53N 59°54' E 028°38'0 0.0
2017-Dec-12 14:23N 59°54' E 028°38'0 0.0
2017-Dec-12 13:53N 59°54' E 028°38'0 0.0
2017-Dec-12 13:23N 59°54' E 028°38'0 0.0
2017-Dec-12 12:56N 59°54' E 028°38'0 0.0
2017-Dec-12 12:26N 59°54' E 028°38'0 0.0
2017-Dec-12 11:56N 59°54' E 028°38'0 0.0
2017-Dec-12 11:26N 59°54' E 028°38'0 0.0
2017-Dec-12 10:59N 59°54' E 028°38'0 0.0
2017-Dec-12 10:29N 59°54' E 028°38'0 0.0
2017-Dec-12 09:59N 59°54' E 028°38'0 0.0
2017-Dec-12 09:29N 59°54' E 028°38'0 0.0
2017-Dec-12 08:59N 59°54' E 028°38'0 0.0
2017-Dec-12 08:26N 59°54' E 028°38'0 0.0
2017-Dec-12 07:59N 59°54' E 028°38'0 0.0
2017-Dec-12 07:29N 59°54' E 028°38'0 0.0
2017-Dec-12 06:59N 59°54' E 028°38'0 0.0
2017-Dec-12 06:29N 59°54' E 028°38'0 0.0
2017-Dec-12 05:59N 59°54' E 028°38'0 0.0
2017-Dec-12 05:29N 59°54' E 028°38'0 0.0
2017-Dec-12 04:59N 59°54' E 028°38'0 0.0
2017-Dec-12 04:29N 59°54' E 028°38'0 0.0
2017-Dec-12 03:59N 59°54' E 028°38'0 0.0
2017-Dec-12 03:20N 59°54' E 028°38'0 0.0
2017-Dec-12 02:58N 59°54' E 028°38'0 0.0
2017-Dec-12 02:20N 59°54' E 028°38'0 0.0
2017-Dec-12 01:53N 59°54' E 028°38'0 0.0
2017-Dec-12 01:29N 59°54' E 028°38'0 0.0
2017-Dec-12 00:56N 59°54' E 028°38'0 0.0
2017-Dec-12 00:29N 59°54' E 028°38'0 0.0
2017-Dec-11 23:56N 59°54' E 028°38'0 0.2
2017-Dec-11 23:29N 59°54' E 028°38'0 0.0
2017-Dec-11 22:57N 59°54' E 028°38'0 0.0
2017-Dec-11 22:26N 59°54' E 028°38'0 0.0
2017-Dec-11 22:00N 59°54' E 028°38'0 0.1
2017-Dec-11 21:26N 59°54' E 028°38'0 0.1
2017-Dec-11 20:59N 59°54' E 028°38'0 0.0
2017-Dec-11 20:29N 59°54' E 028°38'0 0.1
2017-Dec-11 19:59N 59°54' E 028°38'0 0.1
2017-Dec-11 19:29N 59°54' E 028°38'0 0.0
2017-Dec-11 18:59N 59°54' E 028°38'0 0.1
2017-Dec-11 18:29N 59°54' E 028°38'0 0.0
2017-Dec-11 17:59N 59°54' E 028°38'0 0.3
2017-Dec-11 17:30N 59°55' E 028°38'3 5.7
2017-Dec-11 17:00N 59°57' E 028°37'4 7.1
2017-Dec-11 16:30N 60°01' E 028°35'612.7
2017-Dec-11 16:01N 60°04' E 028°24'713.3
2017-Dec-11 15:30N 60°08' E 028°13'713.3
2017-Dec-11 15:00N 60°09' E 028°00'713.1
2017-Dec-11 14:30N 60°11' E 027°47'612.9
2017-Dec-11 14:01N 60°08' E 027°36'713.5
2017-Dec-11 13:31N 60°04' E 027°24'713.7
2017-Dec-11 13:01N 60°01' E 027°13'612.8
2017-Dec-11 12:30N 59°58' E 027°01'612.9
2017-Dec-11 12:00N 59°59' E 026°48'713.2
2017-Dec-11 11:30N 59°59' E 026°35'713.6
2017-Dec-11 11:01N 59°57' E 026°22'2213.7
2017-Dec-11 09:23N 59°51' E 025°39'513.6
2017-Dec-11 09:00N 59°50' E 025°29'713.4
2017-Dec-11 08:30N 59°49' E 025°16'713.3
2017-Dec-11 08:01N 59°47' E 025°03'713.3
2017-Dec-11 07:30N 59°46' E 024°50'713.8
2017-Dec-11 07:01N 59°45' E 024°37'713.4
2017-Dec-11 06:31N 59°43' E 024°24'713.3
2017-Dec-11 06:00N 59°42' E 024°11'713.4
2017-Dec-11 05:28N 59°39' E 023°57'713.6
2017-Dec-11 04:58N 59°37' E 023°45'713.6
2017-Dec-11 04:27N 59°35' E 023°31'613.4
2017-Dec-11 04:00N 59°33' E 023°21'30613.1
2017-Dec-10 04:32N 55°49' E 016°49'513.9
2017-Dec-10 04:10N 55°48' E 016°40'214.0
2017-Dec-10 04:00N 55°47' E 016°36'713.9
2017-Dec-10 03:30N 55°45' E 016°24'714.0
2017-Dec-10 03:00N 55°44' E 016°12'714.0
2017-Dec-10 02:30N 55°42' E 016°00'713.8
2017-Dec-10 02:00N 55°40' E 015°48'713.9
2017-Dec-10 01:30N 55°38' E 015°36'713.7
2017-Dec-10 01:00N 55°36' E 015°25'713.8
2017-Dec-10 00:31N 55°32' E 015°15'713.9
2017-Dec-10 00:00N 55°29' E 015°04'713.8
2017-Dec-09 23:30N 55°26' E 014°52'713.8
2017-Dec-09 23:00N 55°24' E 014°41'713.7
2017-Dec-09 22:30N 55°18' E 014°34'713.5
2017-Dec-09 22:00N 55°13' E 014°26'613.2
2017-Dec-09 21:30N 55°09' E 014°16'914.2
2017-Dec-09 20:52N 55°09' E 014°01'914.0
2017-Dec-09 20:14N 55°10' E 013°45'1114.0
2017-Dec-09 19:28N 55°10' E 013°26'714.3
2017-Dec-09 18:59N 55°11' E 013°14'714.1
2017-Dec-09 18:30N 55°12' E 013°03'714.6
2017-Dec-09 18:00N 55°15' E 012°51'714.4
2017-Dec-09 17:30N 55°18' E 012°39'612.4
2017-Dec-09 17:00N 55°24' E 012°39'611.7
2017-Dec-09 16:30N 55°29' E 012°43'4 8.8
2017-Dec-09 16:00N 55°33' E 012°47'611.3
2017-Dec-09 15:30N 55°37' E 012°54'510.4
2017-Dec-09 15:01N 55°42' E 012°54'713.9
2017-Dec-09 14:31N 55°48' E 012°47'714.1
2017-Dec-09 14:01N 55°55' E 012°44'815.1
2017-Dec-09 13:31N 56°02' E 012°39'611.7
2017-Dec-09 13:00N 56°07' E 012°32'4 8.8
2017-Dec-09 12:30N 56°09' E 012°26'4 8.8
2017-Dec-09 12:00N 56°11' E 012°19'5 9.4
2017-Dec-09 11:30N 56°14' E 012°12'510.4
2017-Dec-09 11:00N 56°17' E 012°04'4012.4
2017-Dec-09 07:46N 56°55' E 011°46'414.6
2017-Dec-09 07:30N 56°59' E 011°43'714.7
2017-Dec-09 07:00N 57°06' E 011°38'714.2
2017-Dec-09 06:30N 57°13' E 011°34'714.0
2017-Dec-09 06:00N 57°19' E 011°30'714.4
2017-Dec-09 05:30N 57°26' E 011°26'714.1
2017-Dec-09 05:00N 57°31' E 011°17'713.9
2017-Dec-09 04:30N 57°35' E 011°06'714.5
2017-Dec-09 04:00N 57°37' E 010°53'714.4
2017-Dec-09 03:31N 57°39' E 010°40'0 0.7
2017-Dec-09 02:58N 57°39' E 010°39'0 0.0
2017-Dec-09 02:25N 57°39' E 010°39'0 0.0
2017-Dec-09 01:58N 57°39' E 010°39'0 0.0
2017-Dec-09 01:28N 57°39' E 010°39'0 0.0
2017-Dec-09 00:55N 57°39' E 010°39'0 0.0
2017-Dec-09 00:28N 57°39' E 010°39'0 0.0
2017-Dec-08 23:58N 57°39' E 010°39'0 0.0
2017-Dec-08 23:28N 57°39' E 010°39'0 0.1
2017-Dec-08 22:58N 57°39' E 010°39'0 0.1
2017-Dec-08 22:28N 57°39' E 010°39'0 0.0
2017-Dec-08 21:55N 57°39' E 010°39'0 0.0
2017-Dec-08 21:28N 57°39' E 010°39'0 0.0
2017-Dec-08 20:55N 57°39' E 010°39'0 0.1
2017-Dec-08 20:28N 57°39' E 010°39'0 0.1
2017-Dec-08 19:58N 57°39' E 010°39'0 0.0
2017-Dec-08 19:25N 57°39' E 010°39'1 1.5
2017-Dec-08 19:00N 57°39' E 010°39'0 0.1
2017-Dec-08 18:27N 57°40' E 010°39'0 0.6
2017-Dec-08 18:00N 57°40' E 010°38'  
Track history (hours):
 
Tides and Currents Weather Stations Pressure Air Temp Water Temp Dewpoint Dewpoint Depression Visibility Wind Speed Wind Dir Waves Ship Positions

Songa Genesis

Last reported at 2017-Dec-18 17:57 UTC. Time now 2017-Dec-18 22:32 UTC.
Position N 55°04' E 013°59'.

Length 229 m; draft 12.5 m.

Type: Cargo ship. MMSI: 538007355.

Date/timePositionNaut miles runAvg speedWind from/ knotsBaromVisibWave heightAir tempDewpointWater temp
2017-Dec-18 17:57N 55°04' E 013°59'612.1
2017-Dec-18 17:27N 55°07' E 014°08'511.9
2017-Dec-18 17:00N 55°11' E 014°14'612.2
2017-Dec-18 16:30N 55°16' E 014°21'612.4
2017-Dec-18 16:00N 55°20' E 014°27'612.4
2017-Dec-18 15:30N 55°25' E 014°34'612.3
2017-Dec-18 15:00N 55°28' E 014°43'612.4
2017-Dec-18 14:30N 55°31' E 014°53'712.2
2017-Dec-18 13:58N 55°34' E 015°03'612.1
2017-Dec-18 13:30N 55°37' E 015°12'612.1
2017-Dec-18 13:00N 55°39' E 015°22'612.2
2017-Dec-18 12:30N 55°40' E 015°33'612.2
2017-Dec-18 12:00N 55°42' E 015°43'612.4
2017-Dec-18 11:30N 55°43' E 015°54'612.6
2017-Dec-18 11:00N 55°45' E 016°05'612.7
2017-Dec-18 10:30N 55°46' E 016°16'612.5
2017-Dec-18 10:00N 55°48' E 016°27'612.3
2017-Dec-18 09:30N 55°49' E 016°37'33411.9
2017-Dec-17 05:24N 59°44' E 024°03'512.7
2017-Dec-17 04:59N 59°45' E 024°13'612.9
2017-Dec-17 04:30N 59°47' E 024°25'612.8
2017-Dec-17 04:00N 59°49' E 024°37'613.0
2017-Dec-17 03:30N 59°50' E 024°50'612.9
2017-Dec-17 03:00N 59°51' E 025°02'612.7
2017-Dec-17 02:30N 59°52' E 025°15'712.8
2017-Dec-17 02:00N 59°53' E 025°28'612.4
2017-Dec-17 01:30N 59°54' E 025°40'1712.6
2017-Dec-17 00:11N 59°58' E 026°12'212.8
2017-Dec-17 00:00N 59°59' E 026°16'612.5
2017-Dec-16 23:30N 60°01' E 026°28'612.3
2017-Dec-16 23:00N 60°01' E 026°41'612.5
2017-Dec-16 22:31N 60°00' E 026°53'612.2
2017-Dec-16 22:00N 59°60' E 027°05'612.6
2017-Dec-16 21:30N 60°03' E 027°16'612.4
2017-Dec-16 21:01N 60°06' E 027°26'612.6
2017-Dec-16 20:30N 60°10' E 027°37'611.8
2017-Dec-16 20:00N 60°12' E 027°48'612.6
2017-Dec-16 19:30N 60°10' E 028°00'612.5
2017-Dec-16 19:01N 60°09' E 028°13'612.0
2017-Dec-16 18:31N 60°05' E 028°23'612.2
2017-Dec-16 18:00N 60°03' E 028°34'611.2
2017-Dec-16 17:30N 59°57' E 028°35'4 8.6
2017-Dec-16 17:01N 59°54' E 028°31'611.2
2017-Dec-16 16:30N 59°49' E 028°25'5 9.5
2017-Dec-16 16:00N 59°44' E 028°25'3 5.4
2017-Dec-16 15:30N 59°41' E 028°25'0 0.1
2017-Dec-16 14:56N 59°41' E 028°25'0 0.0
2017-Dec-16 14:24N 59°41' E 028°25'0 0.0
2017-Dec-16 13:54N 59°41' E 028°25'0 0.0
2017-Dec-16 13:24N 59°41' E 028°25'0 0.0
2017-Dec-16 12:57N 59°41' E 028°25'0 0.0
2017-Dec-16 12:27N 59°41' E 028°25'0 0.0
2017-Dec-16 11:57N 59°41' E 028°25'0 0.0
2017-Dec-16 11:27N 59°41' E 028°25'0 0.0
2017-Dec-16 10:57N 59°41' E 028°25'0 0.0
2017-Dec-16 10:30N 59°41' E 028°25'0 0.0
2017-Dec-16 10:00N 59°41' E 028°25'0 0.0
2017-Dec-16 09:30N 59°41' E 028°25'0 0.0
2017-Dec-16 09:00N 59°41' E 028°25'0 0.0
2017-Dec-16 08:30N 59°41' E 028°25'0 0.0
2017-Dec-16 08:00N 59°41' E 028°25'0 0.0
2017-Dec-16 07:30N 59°41' E 028°25'0 0.0
2017-Dec-16 07:00N 59°41' E 028°25'0 0.0
2017-Dec-16 06:30N 59°41' E 028°25'0 0.0
2017-Dec-16 06:00N 59°41' E 028°25'0 0.0
2017-Dec-16 05:27N 59°41' E 028°25'0 0.0
2017-Dec-16 04:51N 59°41' E 028°25'0 0.0
2017-Dec-16 04:30N 59°41' E 028°25'0 0.0
2017-Dec-16 04:00N 59°41' E 028°25'0 0.0
2017-Dec-16 03:21N 59°41' E 028°25'0 0.0
2017-Dec-16 02:51N 59°41' E 028°25'0 0.0
2017-Dec-16 02:21N 59°41' E 028°25'0 0.0
2017-Dec-16 01:54N 59°41' E 028°25'0 0.0
2017-Dec-16 01:24N 59°41' E 028°25'0 0.0
2017-Dec-16 00:57N 59°41' E 028°25'0 0.0
2017-Dec-16 00:24N 59°41' E 028°25'0 0.0
2017-Dec-16 00:00N 59°41' E 028°25'0 0.0
2017-Dec-15 23:27N 59°41' E 028°25'0 0.0
2017-Dec-15 23:00N 59°41' E 028°25'0 0.0
2017-Dec-15 22:27N 59°41' E 028°25'0 0.0
2017-Dec-15 21:57N 59°41' E 028°25'0 0.0
2017-Dec-15 21:27N 59°41' E 028°25'0 0.0
2017-Dec-15 20:57N 59°41' E 028°25'0 0.0
2017-Dec-15 20:28N 59°41' E 028°25'0 0.0
2017-Dec-15 20:00N 59°41' E 028°25'0 0.0
2017-Dec-15 19:30N 59°41' E 028°25'0 0.0
2017-Dec-15 19:00N 59°41' E 028°25'0 0.0
2017-Dec-15 18:30N 59°41' E 028°25'0 0.0
2017-Dec-15 18:00N 59°41' E 028°25'0 0.0
2017-Dec-15 17:30N 59°41' E 028°25'0 0.0
2017-Dec-15 17:00N 59°41' E 028°25'0 0.0
2017-Dec-15 16:30N 59°41' E 028°25'0 0.0
2017-Dec-15 16:00N 59°41' E 028°25'0 0.0
2017-Dec-15 15:18N 59°41' E 028°25'0 0.0
2017-Dec-15 15:00N 59°41' E 028°25'0 0.0
2017-Dec-15 14:30N 59°41' E 028°25'0 0.0
2017-Dec-15 14:00N 59°41' E 028°25'0 0.0
2017-Dec-15 13:18N 59°41' E 028°25'0 0.0
2017-Dec-15 12:51N 59°41' E 028°25'0 0.0
2017-Dec-15 12:21N 59°41' E 028°25'0 0.0
2017-Dec-15 11:54N 59°41' E 028°25'0 0.0
2017-Dec-15 11:24N 59°41' E 028°25'0 0.0
2017-Dec-15 10:54N 59°41' E 028°25'0 0.0
2017-Dec-15 10:24N 59°41' E 028°25'0 0.0
2017-Dec-15 09:54N 59°41' E 028°25'0 0.0
2017-Dec-15 09:24N 59°41' E 028°25'0 0.0
2017-Dec-15 08:55N 59°41' E 028°25'0 0.0
2017-Dec-15 08:25N 59°41' E 028°25'0 0.0
2017-Dec-15 07:55N 59°41' E 028°25'0 0.0
2017-Dec-15 07:25N 59°41' E 028°25'0 0.0
2017-Dec-15 06:55N 59°41' E 028°25'0 0.0
2017-Dec-15 06:28N 59°41' E 028°25'0 0.0
2017-Dec-15 05:58N 59°41' E 028°25'0 0.0
2017-Dec-15 05:28N 59°41' E 028°25'0 0.0
2017-Dec-15 04:58N 59°41' E 028°25'0 0.0
2017-Dec-15 04:28N 59°41' E 028°25'0 0.0
2017-Dec-15 03:58N 59°41' E 028°25'0 0.0
2017-Dec-15 02:16N 59°41' E 028°25'0 0.0
2017-Dec-15 00:58N 59°41' E 028°25'0 0.0
2017-Dec-15 00:28N 59°41' E 028°25'15 2.5
2017-Dec-14 18:29N 59°54' E 028°38'0 0.0
2017-Dec-14 17:50N 59°54' E 028°38'0 0.0
2017-Dec-14 17:20N 59°54' E 028°38'0 0.0
2017-Dec-14 16:50N 59°54' E 028°38'0 0.0
2017-Dec-14 16:23N 59°54' E 028°38'0 0.0
2017-Dec-14 15:53N 59°54' E 028°38'0 0.0
2017-Dec-14 14:53N 59°54' E 028°38'0 0.0
2017-Dec-14 14:23N 59°54' E 028°38'0 0.0
2017-Dec-14 14:00N 59°54' E 028°38'0 0.0
2017-Dec-14 13:26N 59°54' E 028°38'0 0.0
2017-Dec-14 12:56N 59°54' E 028°38'0 0.0
2017-Dec-14 12:15N 59°54' E 028°38'0 0.0
2017-Dec-14 11:56N 59°54' E 028°38'0 0.0
2017-Dec-14 11:29N 59°54' E 028°38'0 0.0
2017-Dec-14 10:57N 59°54' E 028°38'0 0.0
2017-Dec-14 10:29N 59°54' E 028°38'0 0.0
2017-Dec-14 09:59N 59°54' E 028°38'0 0.0
2017-Dec-14 09:30N 59°54' E 028°38'0 0.0
2017-Dec-14 08:59N 59°54' E 028°38'0 0.0
2017-Dec-14 08:29N 59°54' E 028°38'0 0.0
2017-Dec-14 07:59N 59°54' E 028°38'0 0.0
2017-Dec-14 07:29N 59°54' E 028°38'0 0.0
2017-Dec-14 07:00N 59°54' E 028°38'0 0.0
2017-Dec-14 06:29N 59°54' E 028°38'0 0.1
2017-Dec-14 05:59N 59°54' E 028°38'0 0.0
2017-Dec-14 05:29N 59°54' E 028°38'0 0.0
2017-Dec-14 04:59N 59°54' E 028°38'0 0.0
2017-Dec-14 04:20N 59°54' E 028°38'0 0.0
2017-Dec-14 03:55N 59°54' E 028°38'0 0.0
2017-Dec-14 03:22N 59°54' E 028°38'0 0.0
2017-Dec-14 03:00N 59°54' E 028°38'0 0.0
2017-Dec-14 02:23N 59°54' E 028°38'0 0.0
2017-Dec-14 01:59N 59°54' E 028°38'0 0.0
2017-Dec-14 01:28N 59°54' E 028°38'0 0.0
2017-Dec-14 00:59N 59°54' E 028°38'0 0.0
2017-Dec-14 00:23N 59°54' E 028°38'0 0.0
2017-Dec-13 23:56N 59°54' E 028°38'0 0.0
2017-Dec-13 23:26N 59°54' E 028°38'0 0.0
2017-Dec-13 22:56N 59°54' E 028°38'0 0.0
2017-Dec-13 22:28N 59°54' E 028°38'0 0.0
2017-Dec-13 22:00N 59°54' E 028°38'0 0.0
2017-Dec-13 21:29N 59°54' E 028°38'0 0.0
2017-Dec-13 20:59N 59°54' E 028°38'0 0.0
2017-Dec-13 20:29N 59°54' E 028°38'0 0.0
2017-Dec-13 19:59N 59°54' E 028°38'0 0.0
2017-Dec-13 19:29N 59°54' E 028°38'0 0.0
2017-Dec-13 18:59N 59°54' E 028°38'0 0.0
2017-Dec-13 18:26N 59°54' E 028°38'0 0.0
2017-Dec-13 17:59N 59°54' E 028°38'0 0.0
2017-Dec-13 17:29N 59°54' E 028°38'0 0.0
2017-Dec-13 16:59N 59°54' E 028°38'0 0.0
2017-Dec-13 16:29N 59°54' E 028°38'0 0.0
2017-Dec-13 15:59N 59°54' E 028°38'0 0.0
2017-Dec-13 15:29N 59°54' E 028°38'0 0.0
2017-Dec-13 14:59N 59°54' E 028°38'0 0.1
2017-Dec-13 14:29N 59°54' E 028°38'0 0.0
2017-Dec-13 13:55N 59°54' E 028°38'0 0.0
2017-Dec-13 13:30N 59°54' E 028°38'0 0.0
2017-Dec-13 12:58N 59°54' E 028°38'0 0.0
2017-Dec-13 12:29N 59°54' E 028°38'0 0.0
2017-Dec-13 11:59N 59°54' E 028°38'0 0.0
2017-Dec-13 11:29N 59°54' E 028°38'0 0.2
2017-Dec-13 10:59N 59°54' E 028°38'0 0.1
2017-Dec-13 10:29N 59°54' E 028°38'0 0.1
2017-Dec-13 09:59N 59°54' E 028°38'0 0.0
2017-Dec-13 09:29N 59°54' E 028°38'0 0.1
2017-Dec-13 08:59N 59°54' E 028°38'0 0.1
2017-Dec-13 08:29N 59°54' E 028°38'0 0.0
2017-Dec-13 07:58N 59°54' E 028°38'0 0.0
2017-Dec-13 07:28N 59°54' E 028°38'0 0.0
2017-Dec-13 07:00N 59°54' E 028°38'0 0.0
2017-Dec-13 06:20N 59°54' E 028°38'0 0.0
2017-Dec-13 05:58N 59°54' E 028°38'0 0.0
2017-Dec-13 05:30N 59°54' E 028°38'0 0.0
2017-Dec-13 05:00N 59°54' E 028°38'0 0.0
2017-Dec-13 04:30N 59°54' E 028°38'0 0.0
2017-Dec-13 04:01N 59°54' E 028°38'0 0.0
2017-Dec-13 03:27N 59°54' E 028°38'0 0.0
2017-Dec-13 03:00N 59°54' E 028°38'0 0.1
2017-Dec-13 02:29N 59°54' E 028°38'0 0.1
2017-Dec-13 02:00N 59°54' E 028°38'0 0.0
2017-Dec-13 01:30N 59°54' E 028°38'0 0.0
2017-Dec-13 00:56N 59°54' E 028°38'0 0.0
2017-Dec-13 00:29N 59°54' E 028°38'0 0.0
2017-Dec-12 23:59N 59°54' E 028°38'0 0.0
2017-Dec-12 23:29N 59°54' E 028°38'0 0.0
2017-Dec-12 22:55N 59°54' E 028°38'0 0.0
2017-Dec-12 22:04N 59°54' E 028°38'0 0.0
2017-Dec-12 21:56N 59°54' E 028°38'0 0.0
2017-Dec-12 21:25N 59°54' E 028°38'0 0.0
2017-Dec-12 20:59N 59°54' E 028°38'0 0.0
2017-Dec-12 20:29N 59°54' E 028°38'0 0.0
2017-Dec-12 19:59N 59°54' E 028°38'0 0.0
2017-Dec-12 19:29N 59°54' E 028°38'0 0.0
2017-Dec-12 19:00N 59°54' E 028°38'0 0.0
2017-Dec-12 18:29N 59°54' E 028°38'0 0.0
2017-Dec-12 17:50N 59°54' E 028°38'0 0.0
2017-Dec-12 17:20N 59°54' E 028°38'0 0.0
2017-Dec-12 16:50N 59°54' E 028°38'0 0.0
2017-Dec-12 16:29N 59°54' E 028°38'0 0.0
2017-Dec-12 15:53N 59°54' E 028°38'0 0.0
2017-Dec-12 15:29N 59°54' E 028°38'0 0.0
2017-Dec-12 14:53N 59°54' E 028°38'0 0.0
2017-Dec-12 14:23N 59°54' E 028°38'0 0.0
2017-Dec-12 13:53N 59°54' E 028°38'0 0.0
2017-Dec-12 13:23N 59°54' E 028°38'0 0.0
2017-Dec-12 12:56N 59°54' E 028°38'0 0.0
2017-Dec-12 12:26N 59°54' E 028°38'0 0.0
2017-Dec-12 11:56N 59°54' E 028°38'0 0.0
2017-Dec-12 11:26N 59°54' E 028°38'0 0.0
2017-Dec-12 10:59N 59°54' E 028°38'0 0.0
2017-Dec-12 10:29N 59°54' E 028°38'0 0.0
2017-Dec-12 09:59N 59°54' E 028°38'0 0.0
2017-Dec-12 09:29N 59°54' E 028°38'0 0.0
2017-Dec-12 08:59N 59°54' E 028°38'0 0.0
2017-Dec-12 08:26N 59°54' E 028°38'0 0.0
2017-Dec-12 07:59N 59°54' E 028°38'0 0.0
2017-Dec-12 07:29N 59°54' E 028°38'0 0.0
2017-Dec-12 06:59N 59°54' E 028°38'0 0.0
2017-Dec-12 06:29N 59°54' E 028°38'0 0.0
2017-Dec-12 05:59N 59°54' E 028°38'0 0.0
2017-Dec-12 05:29N 59°54' E 028°38'0 0.0
2017-Dec-12 04:59N 59°54' E 028°38'0 0.0
2017-Dec-12 04:29N 59°54' E 028°38'0 0.0
2017-Dec-12 03:59N 59°54' E 028°38'0 0.0
2017-Dec-12 03:20N 59°54' E 028°38'0 0.0
2017-Dec-12 02:58N 59°54' E 028°38'0 0.0
2017-Dec-12 02:20N 59°54' E 028°38'0 0.0
2017-Dec-12 01:53N 59°54' E 028°38'0 0.0
2017-Dec-12 01:29N 59°54' E 028°38'0 0.0
2017-Dec-12 00:56N 59°54' E 028°38'0 0.0
2017-Dec-12 00:29N 59°54' E 028°38'0 0.0
2017-Dec-11 23:56N 59°54' E 028°38'0 0.2
2017-Dec-11 23:29N 59°54' E 028°38'0 0.0
2017-Dec-11 22:57N 59°54' E 028°38'0 0.0
2017-Dec-11 22:26N 59°54' E 028°38'0 0.0
2017-Dec-11 22:00N 59°54' E 028°38'0 0.1
2017-Dec-11 21:26N 59°54' E 028°38'0 0.1
2017-Dec-11 20:59N 59°54' E 028°38'0 0.0
2017-Dec-11 20:29N 59°54' E 028°38'0 0.1
2017-Dec-11 19:59N 59°54' E 028°38'0 0.1
2017-Dec-11 19:29N 59°54' E 028°38'0 0.0
2017-Dec-11 18:59N 59°54' E 028°38'0 0.1
2017-Dec-11 18:29N 59°54' E 028°38'0 0.0
2017-Dec-11 17:59N 59°54' E 028°38'0 0.3
2017-Dec-11 17:30N 59°55' E 028°38'3 5.7
2017-Dec-11 17:00N 59°57' E 028°37'4 7.1
2017-Dec-11 16:30N 60°01' E 028°35'612.7
2017-Dec-11 16:01N 60°04' E 028°24'713.3
2017-Dec-11 15:30N 60°08' E 028°13'713.3
2017-Dec-11 15:00N 60°09' E 028°00'713.1
2017-Dec-11 14:30N 60°11' E 027°47'612.9
2017-Dec-11 14:01N 60°08' E 027°36'713.5
2017-Dec-11 13:31N 60°04' E 027°24'713.7
2017-Dec-11 13:01N 60°01' E 027°13'612.8
2017-Dec-11 12:30N 59°58' E 027°01'612.9
2017-Dec-11 12:00N 59°59' E 026°48'713.2
2017-Dec-11 11:30N 59°59' E 026°35'713.6
2017-Dec-11 11:01N 59°57' E 026°22'2213.7
2017-Dec-11 09:23N 59°51' E 025°39'513.6
2017-Dec-11 09:00N 59°50' E 025°29'713.4
2017-Dec-11 08:30N 59°49' E 025°16'713.3
2017-Dec-11 08:01N 59°47' E 025°03'713.3
2017-Dec-11 07:30N 59°46' E 024°50'713.8
2017-Dec-11 07:01N 59°45' E 024°37'713.4
2017-Dec-11 06:31N 59°43' E 024°24'713.3
2017-Dec-11 06:00N 59°42' E 024°11'713.4
2017-Dec-11 05:28N 59°39' E 023°57'713.6
2017-Dec-11 04:58N 59°37' E 023°45'713.6
2017-Dec-11 04:27N 59°35' E 023°31'613.4
2017-Dec-11 04:00N 59°33' E 023°21'30613.1
2017-Dec-10 04:32N 55°49' E 016°49'513.9
2017-Dec-10 04:10N 55°48' E 016°40'214.0
2017-Dec-10 04:00N 55°47' E 016°36'713.9
2017-Dec-10 03:30N 55°45' E 016°24'714.0
2017-Dec-10 03:00N 55°44' E 016°12'714.0
2017-Dec-10 02:30N 55°42' E 016°00'713.8
2017-Dec-10 02:00N 55°40' E 015°48'713.9
2017-Dec-10 01:30N 55°38' E 015°36'713.7
2017-Dec-10 01:00N 55°36' E 015°25'713.8
2017-Dec-10 00:31N 55°32' E 015°15'713.9
2017-Dec-10 00:00N 55°29' E 015°04'713.8
2017-Dec-09 23:30N 55°26' E 014°52'713.8
2017-Dec-09 23:00N 55°24' E 014°41'713.7
2017-Dec-09 22:30N 55°18' E 014°34'713.5
2017-Dec-09 22:00N 55°13' E 014°26'613.2
2017-Dec-09 21:30N 55°09' E 014°16'914.2
2017-Dec-09 20:52N 55°09' E 014°01'914.0
2017-Dec-09 20:14N 55°10' E 013°45'1114.0
2017-Dec-09 19:28N 55°10' E 013°26'714.3
2017-Dec-09 18:59N 55°11' E 013°14'714.1
2017-Dec-09 18:30N 55°12' E 013°03'714.6
2017-Dec-09 18:00N 55°15' E 012°51'714.4
2017-Dec-09 17:30N 55°18' E 012°39'612.4
2017-Dec-09 17:00N 55°24' E 012°39'611.7
2017-Dec-09 16:30N 55°29' E 012°43'4 8.8
2017-Dec-09 16:00N 55°33' E 012°47'611.3
2017-Dec-09 15:30N 55°37' E 012°54'510.4
2017-Dec-09 15:01N 55°42' E 012°54'713.9
2017-Dec-09 14:31N 55°48' E 012°47'714.1
2017-Dec-09 14:01N 55°55' E 012°44'815.1
2017-Dec-09 13:31N 56°02' E 012°39'611.7
2017-Dec-09 13:00N 56°07' E 012°32'4 8.8
2017-Dec-09 12:30N 56°09' E 012°26'4 8.8
2017-Dec-09 12:00N 56°11' E 012°19'5 9.4
2017-Dec-09 11:30N 56°14' E 012°12'510.4
2017-Dec-09 11:00N 56°17' E 012°04'4012.4
2017-Dec-09 07:46N 56°55' E 011°46'414.6
2017-Dec-09 07:30N 56°59' E 011°43'714.7
2017-Dec-09 07:00N 57°06' E 011°38'714.2
2017-Dec-09 06:30N 57°13' E 011°34'714.0
2017-Dec-09 06:00N 57°19' E 011°30'714.4
2017-Dec-09 05:30N 57°26' E 011°26'714.1
2017-Dec-09 05:00N 57°31' E 011°17'713.9
2017-Dec-09 04:30N 57°35' E 011°06'714.5
2017-Dec-09 04:00N 57°37' E 010°53'714.4
2017-Dec-09 03:31N 57°39' E 010°40'0 0.7
2017-Dec-09 02:58N 57°39' E 010°39'0 0.0
2017-Dec-09 02:25N 57°39' E 010°39'0 0.0
2017-Dec-09 01:58N 57°39' E 010°39'0 0.0
2017-Dec-09 01:28N 57°39' E 010°39'0 0.0
2017-Dec-09 00:55N 57°39' E 010°39'0 0.0
2017-Dec-09 00:28N 57°39' E 010°39'0 0.0
2017-Dec-08 23:58N 57°39' E 010°39'0 0.0
2017-Dec-08 23:28N 57°39' E 010°39'0 0.1
2017-Dec-08 22:58N 57°39' E 010°39'0 0.1
2017-Dec-08 22:28N 57°39' E 010°39'0 0.0
2017-Dec-08 21:55N 57°39' E 010°39'0 0.0
2017-Dec-08 21:28N 57°39' E 010°39'0 0.0
2017-Dec-08 20:55N 57°39' E 010°39'0 0.1
2017-Dec-08 20:28N 57°39' E 010°39'0 0.1
2017-Dec-08 19:58N 57°39' E 010°39'0 0.0
2017-Dec-08 19:25N 57°39' E 010°39'1 1.5
2017-Dec-08 19:00N 57°39' E 010°39'0 0.1
2017-Dec-08 18:27N 57°40' E 010°39'0 0.6
2017-Dec-08 18:00N 57°40' E 010°38'  

Dump ship's entire track history